Terminal Aerodrome Forecast
Issued by NWS

Home | Current Version | Previous Version | Text Only | Print | Product List | Glossary On
Versions: 1 2 3 4 5 6 7 8 9 10 11 12
000
FTUS42 KMLB 050539
TAFTIX
TAF
KTIX 050539Z 0506/0606 16005KT P6SM SCT015
      TEMPO 0506/0508 SCT008 BKN015
     FM050800 17003KT P6SM SCT004 BKN008
      TEMPO 0514/0516 SCT008 BKN015
     FM051600 19009KT P6SM BKN025
     FM051800 18007KT P6SM VCSH BKN040
     FM060000 18003KT P6SM VCSH BKN040
      AMD NOT SKED TIL 051100=

USA.gov is the U.S. government's official web portal to all federal, state and local government web resources and services.